Time;durP1;ratioP1;P1;durP2;ratioP2;P2;SDS_P1;SDS_P2;PMS_P1;PMS_P2;Temp;Humidity;BMP_temperature;BMP_pressure;BME280_temperature;BME280_humidity;BME280_pressure;Samples;Min_cycle;Max_cycle;Signal;HPM_P1;HPM_P2
2024/03/10 00:00:20;;;;;;;;;;;17.80;31.50;;;;;;5082016;28;19939;-52
2024/03/10 00:02:50;;;;;;;;;;;17.90;31.50;;;;;;5079134;28;19928;-54
2024/03/10 00:05:19;;;;;;;;;;;17.80;31.50;;;;;;5085152;28;19935;-53
2024/03/10 00:07:48;;;;;;;;;;;17.90;31.60;;;;;;5080373;28;20347;-55
2024/03/10 00:10:17;;;;;;;;;;;17.90;31.30;;;;;;5089722;28;20305;-56
2024/03/10 00:12:47;;;;;;;;;;;17.90;31.50;;;;;;5084986;28;20018;-56
2024/03/10 00:15:16;;;;;;;;;;;17.90;31.30;;;;;;5083198;28;19981;-53
2024/03/10 00:17:44;;;;;;;;;;;17.90;31.40;;;;;;5090807;28;20305;-53
2024/03/10 00:20:13;;;;;;;;;;;18.00;31.20;;;;;;5082466;28;20286;-58
2024/03/10 00:22:42;;;;;;;;;;;18.00;31.30;;;;;;5083961;27;20436;-54
2024/03/10 00:25:15;;;;;;;;;;;18.10;31.40;;;;;;5075712;28;20022;-51
2024/03/10 00:27:45;;;;;;;;;;;18.10;31.40;;;;;;5083555;28;20000;-52
2024/03/10 00:30:13;;;;;;;;;;;18.10;31.20;;;;;;5087402;28;19924;-54
2024/03/10 00:32:43;;;;;;;;;;;18.20;31.50;;;;;;5092147;28;19928;-54
2024/03/10 00:35:13;;;;;;;;;;;18.20;31.20;;;;;;5067831;28;19946;-53
2024/03/10 00:37:42;;;;;;;;;;;18.20;31.10;;;;;;5053218;28;21508;-51
2024/03/10 00:40:10;;;;;;;;;;;18.20;31.30;;;;;;5066197;28;19928;-53
2024/03/10 00:42:39;;;;;;;;;;;18.20;31.40;;;;;;5066996;28;19928;-52
2024/03/10 00:45:09;;;;;;;;;;;18.20;31.30;;;;;;5063657;28;20027;-51
2024/03/10 00:47:38;;;;;;;;;;;18.20;31.30;;;;;;5057380;28;19924;-55
2024/03/10 00:50:08;;;;;;;;;;;18.30;31.20;;;;;;5061322;28;20448;-53
2024/03/10 00:52:37;;;;;;;;;;;18.30;31.30;;;;;;5066523;28;19932;-52
2024/03/10 00:55:06;;;;;;;;;;;18.30;31.20;;;;;;5062884;28;19928;-52
2024/03/10 00:57:34;;;;;;;;;;;18.30;31.30;;;;;;5062938;28;19928;-54
2024/03/10 01:00:04;;;;;;;;;;;18.40;31.20;;;;;;5058824;28;19958;-54
2024/03/10 01:02:33;;;;;;;;;;;18.40;31.20;;;;;;5061214;28;19993;-54
2024/03/10 01:05:01;;;;;;;;;;;18.40;31.00;;;;;;5062586;28;19936;-53
2024/03/10 01:07:30;;;;;;;;;;;18.40;31.10;;;;;;5055100;28;19929;-50
2024/03/10 01:09:58;;;;;;;;;;;18.40;31.00;;;;;;5067134;28;19959;-53
2024/03/10 01:12:28;;;;;;;;;;;18.40;30.60;;;;;;5060675;28;19928;-53
2024/03/10 01:14:57;;;;;;;;;;;18.40;30.60;;;;;;5067616;28;19963;-52
2024/03/10 01:17:25;;;;;;;;;;;18.40;30.50;;;;;;5055917;28;20389;-53
2024/03/10 01:19:56;;;;;;;;;;;18.40;30.50;;;;;;5069650;28;20290;-54
2024/03/10 01:22:25;;;;;;;;;;;18.50;30.70;;;;;;5061161;28;20342;-50
2024/03/10 01:24:54;;;;;;;;;;;18.50;31.50;;;;;;5067559;28;20612;-54
2024/03/10 01:27:22;;;;;;;;;;;18.50;30.80;;;;;;5054852;28;19943;-52
2024/03/10 01:29:50;;;;;;;;;;;18.50;30.70;;;;;;5061700;28;19986;-53
2024/03/10 01:32:19;;;;;;;;;;;18.50;30.90;;;;;;5065172;28;20026;-54
2024/03/10 01:34:48;;;;;;;;;;;18.50;30.60;;;;;;5079361;28;20284;-54
2024/03/10 01:37:18;;;;;;;;;;;18.50;30.90;;;;;;5081359;27;21306;-48
2024/03/10 01:39:46;;;;;;;;;;;18.40;30.40;;;;;;5086853;28;19980;-51
2024/03/10 01:42:14;;;;;;;;;;;18.40;30.40;;;;;;5078203;28;20615;-52
2024/03/10 01:44:43;;;;;;;;;;;18.40;30.60;;;;;;5084953;28;19932;-54
2024/03/10 01:47:11;;;;;;;;;;;18.40;30.90;;;;;;5079320;28;19928;-52
2024/03/10 01:49:39;;;;;;;;;;;18.40;30.90;;;;;;5072883;28;20032;-54
2024/03/10 01:52:08;;;;;;;;;;;18.30;30.80;;;;;;5083646;28;20384;-53
2024/03/10 01:54:38;;;;;;;;;;;18.30;30.90;;;;;;5083348;28;19924;-56
2024/03/10 01:57:07;;;;;;;;;;;18.30;31.00;;;;;;5081218;27;19977;-52
2024/03/10 01:59:35;;;;;;;;;;;18.30;30.40;;;;;;5069618;28;20011;-52
2024/03/10 02:02:04;;;;;;;;;;;18.30;30.40;;;;;;5067252;28;20053;-53
2024/03/10 02:04:34;;;;;;;;;;;18.30;30.60;;;;;;5081442;28;19932;-56
2024/03/10 02:07:03;;;;;;;;;;;18.30;30.60;;;;;;5075327;28;19974;-54
2024/03/10 02:09:35;;;;;;;;;;;18.30;30.40;;;;;;5074401;28;19928;-50
2024/03/10 02:12:06;;;;;;;;;;;18.30;30.40;;;;;;5088670;28;19927;-56
2024/03/10 02:14:35;;;;;;;;;;;18.30;30.30;;;;;;5080367;28;19935;-52
2024/03/10 02:17:03;;;;;;;;;;;18.30;30.10;;;;;;5080235;28;19934;-54
2024/03/10 02:19:31;;;;;;;;;;;18.40;30.60;;;;;;5074956;28;19938;-52
2024/03/10 02:22:00;;;;;;;;;;;18.40;30.60;;;;;;5088081;27;19927;-53
2024/03/10 02:24:30;;;;;;;;;;;18.40;30.70;;;;;;5081461;28;19932;-55
2024/03/10 02:26:59;;;;;;;;;;;18.50;30.60;;;;;;5082222;28;19928;-52
2024/03/10 02:29:32;;;;;;;;;;;18.50;30.50;;;;;;5077526;28;19928;-50
2024/03/10 02:48:35;;;;;;;;;;;18.50;31.10;;;;;;5084157;28;19935;-54
2024/03/10 02:51:04;;;;;;;;;;;18.50;31.30;;;;;;5086201;28;19980;-54
2024/03/10 02:53:32;;;;;;;;;;;18.50;30.80;;;;;;5072778;28;19928;-54
2024/03/10 02:56:03;;;;;;;;;;;18.50;31.70;;;;;;5078588;28;19971;-52
2024/03/10 02:58:33;;;;;;;;;;;18.50;31.10;;;;;;5088475;28;19963;-55
2024/03/10 03:01:03;;;;;;;;;;;18.50;31.10;;;;;;5081055;28;20002;-53
2024/03/10 03:03:31;;;;;;;;;;;18.50;31.20;;;;;;5077890;28;20029;-54
2024/03/10 03:05:59;;;;;;;;;;;18.50;31.20;;;;;;5082844;28;20496;-51
2024/03/10 03:08:27;;;;;;;;;;;18.50;31.20;;;;;;5084391;28;19938;-54
2024/03/10 03:10:55;;;;;;;;;;;18.50;31.30;;;;;;5074100;28;19986;-53
2024/03/10 03:13:26;;;;;;;;;;;18.50;31.20;;;;;;5080962;27;19928;-54
2024/03/10 03:15:58;;;;;;;;;;;18.60;31.30;;;;;;5087691;28;19934;-53
2024/03/10 03:18:26;;;;;;;;;;;18.50;31.10;;;;;;5082005;28;19927;-50
2024/03/10 03:20:54;;;;;;;;;;;18.50;31.10;;;;;;5089831;27;20014;-56
2024/03/10 03:23:22;;;;;;;;;;;18.50;30.80;;;;;;5084614;28;20037;-54
2024/03/10 03:25:53;;;;;;;;;;;18.50;30.90;;;;;;5088703;28;20218;-51
2024/03/10 03:28:21;;;;;;;;;;;18.50;31.00;;;;;;5085231;28;20520;-53
2024/03/10 03:30:49;;;;;;;;;;;18.50;31.00;;;;;;5084506;28;20525;-49
2024/03/10 03:33:20;;;;;;;;;;;18.50;31.30;;;;;;5079738;28;19936;-53
2024/03/10 03:35:49;;;;;;;;;;;18.50;31.00;;;;;;5068329;28;19981;-52
2024/03/10 03:38:17;;;;;;;;;;;18.40;31.00;;;;;;5084950;28;19928;-53
2024/03/10 03:40:45;;;;;;;;;;;18.40;31.10;;;;;;5083607;28;19967;-51
2024/03/10 03:43:13;;;;;;;;;;;18.40;30.90;;;;;;5084045;28;19971;-53
2024/03/10 03:45:42;;;;;;;;;;;18.40;31.10;;;;;;5080190;27;20382;-52
2024/03/10 03:48:10;;;;;;;;;;;18.40;31.20;;;;;;5083479;27;19935;-53
2024/03/10 03:50:39;;;;;;;;;;;18.40;31.40;;;;;;5087009;28;19928;-54
2024/03/10 03:53:08;;;;;;;;;;;18.40;31.30;;;;;;5090636;28;19927;-51
2024/03/10 03:55:37;;;;;;;;;;;18.40;31.20;;;;;;5072613;28;20446;-54
2024/03/10 03:58:05;;;;;;;;;;;18.40;31.10;;;;;;5079440;28;19989;-53
2024/03/10 04:00:33;;;;;;;;;;;18.40;31.10;;;;;;5084517;28;19934;-55
2024/03/10 04:03:01;;;;;;;;;;;18.40;31.30;;;;;;5082509;28;19985;-51
2024/03/10 04:05:29;;;;;;;;;;;18.40;31.20;;;;;;5073040;28;19928;-51
2024/03/10 04:07:59;;;;;;;;;;;18.30;31.20;;;;;;5088811;28;19947;-54
2024/03/10 04:10:27;;;;;;;;;;;18.30;31.30;;;;;;5086929;28;20033;-52
2024/03/10 04:12:55;;;;;;;;;;;18.40;31.40;;;;;;5088712;28;19959;-52
2024/03/10 04:15:24;;;;;;;;;;;18.40;31.10;;;;;;5077866;28;19936;-50
2024/03/10 04:17:52;;;;;;;;;;;18.40;31.30;;;;;;5081542;28;19977;-51
2024/03/10 04:20:21;;;;;;;;;;;18.40;31.20;;;;;;5083702;28;19994;-54
2024/03/10 04:22:49;;;;;;;;;;;18.40;31.30;;;;;;5083340;28;20054;-52
2024/03/10 04:25:18;;;;;;;;;;;18.40;31.40;;;;;;5081445;28;19928;-53
2024/03/10 04:27:47;;;;;;;;;;;18.40;31.20;;;;;;5077616;27;20304;-53
2024/03/10 04:30:16;;;;;;;;;;;18.50;31.00;;;;;;5084755;28;19931;-49
2024/03/10 04:32:44;;;;;;;;;;;18.50;31.20;;;;;;5083118;28;19936;-49
2024/03/10 04:35:12;;;;;;;;;;;18.50;31.30;;;;;;5065054;28;19971;-51
2024/03/10 04:37:41;;;;;;;;;;;18.60;31.40;;;;;;5073308;28;20942;-50
2024/03/10 04:40:11;;;;;;;;;;;18.60;31.20;;;;;;5081959;28;19928;-50
2024/03/10 04:42:40;;;;;;;;;;;18.50;31.10;;;;;;5093374;28;19967;-51
2024/03/10 04:45:10;;;;;;;;;;;18.50;31.50;;;;;;5079534;28;19939;-51
2024/03/10 04:47:38;;;;;;;;;;;18.50;31.20;;;;;;5075425;28;20176;-53
2024/03/10 04:50:08;;;;;;;;;;;18.50;31.30;;;;;;5088905;28;19935;-49
2024/03/10 04:52:37;;;;;;;;;;;18.40;31.10;;;;;;5081320;28;20610;-52
2024/03/10 04:55:06;;;;;;;;;;;18.40;31.30;;;;;;5087838;28;19981;-50
2024/03/10 04:57:34;;;;;;;;;;;18.40;31.70;;;;;;5073944;28;19928;-49
2024/03/10 05:00:09;;;;;;;;;;;18.40;31.40;;;;;;5082815;28;19928;-55
2024/03/10 05:02:37;;;;;;;;;;;18.40;31.40;;;;;;5082634;28;19924;-53
2024/03/10 05:05:06;;;;;;;;;;;18.40;31.50;;;;;;5082496;28;19989;-53
2024/03/10 05:07:36;;;;;;;;;;;18.40;31.40;;;;;;5087268;28;19932;-50
2024/03/10 05:10:05;;;;;;;;;;;18.40;31.50;;;;;;5085313;28;19938;-54
2024/03/10 05:12:33;;;;;;;;;;;18.40;31.50;;;;;;5089121;28;20017;-54
2024/03/10 05:15:03;;;;;;;;;;;18.40;31.60;;;;;;5088771;28;19928;-53
2024/03/10 05:17:32;;;;;;;;;;;18.30;31.50;;;;;;5073940;28;20018;-53
2024/03/10 05:20:00;;;;;;;;;;;18.30;31.50;;;;;;5093160;28;20019;-55
2024/03/10 05:22:30;;;;;;;;;;;18.40;31.60;;;;;;5075087;28;19971;-53
2024/03/10 05:24:58;;;;;;;;;;;18.40;31.70;;;;;;5082257;28;20022;-51
2024/03/10 05:27:26;;;;;;;;;;;18.30;31.50;;;;;;5072563;28;20012;-53
2024/03/10 05:29:54;;;;;;;;;;;18.40;31.50;;;;;;5077641;28;19967;-51
2024/03/10 05:32:24;;;;;;;;;;;18.40;31.70;;;;;;5083503;28;19927;-53
2024/03/10 05:34:56;;;;;;;;;;;18.40;31.70;;;;;;5080415;28;19961;-50
2024/03/10 05:37:25;;;;;;;;;;;18.40;31.60;;;;;;5072619;28;19928;-52
2024/03/10 05:39:53;;;;;;;;;;;18.40;31.70;;;;;;5087419;28;19935;-52
2024/03/10 05:42:21;;;;;;;;;;;18.40;31.60;;;;;;5087566;28;19969;-51
2024/03/10 05:44:49;;;;;;;;;;;18.40;31.60;;;;;;5084924;28;19931;-53
2024/03/10 05:47:17;;;;;;;;;;;18.40;31.80;;;;;;5086418;28;19959;-55
2024/03/10 05:49:48;;;;;;;;;;;18.40;31.70;;;;;;5057483;28;19924;-51
2024/03/10 05:52:16;;;;;;;;;;;18.50;31.70;;;;;;5080609;28;19928;-51
2024/03/10 05:54:44;;;;;;;;;;;18.50;31.80;;;;;;5080081;28;20027;-50
2024/03/10 05:57:12;;;;;;;;;;;18.50;31.60;;;;;;5087393;28;19963;-56
2024/03/10 05:59:43;;;;;;;;;;;18.50;31.70;;;;;;5082414;28;19963;-53
2024/03/10 06:02:13;;;;;;;;;;;18.50;31.50;;;;;;5083552;28;20365;-53
2024/03/10 06:04:41;;;;;;;;;;;18.60;31.50;;;;;;5075118;28;19931;-54
2024/03/10 06:07:11;;;;;;;;;;;18.60;31.50;;;;;;5082017;28;20010;-50
2024/03/10 06:09:39;;;;;;;;;;;18.60;31.50;;;;;;5071089;28;20403;-50
2024/03/10 06:12:08;;;;;;;;;;;18.70;31.60;;;;;;5073111;28;19951;-54
2024/03/10 06:14:36;;;;;;;;;;;18.60;31.40;;;;;;5079450;28;19932;-52
2024/03/10 06:17:07;;;;;;;;;;;18.70;31.50;;;;;;5084884;28;20035;-52
2024/03/10 06:25:27;;;;;;;;;;;18.70;31.60;;;;;;5087008;28;19971;-52
2024/03/10 06:27:56;;;;;;;;;;;18.70;31.70;;;;;;5084749;28;20303;-54
2024/03/10 06:30:24;;;;;;;;;;;18.60;31.50;;;;;;5078615;28;19928;-56
2024/03/10 06:32:52;;;;;;;;;;;18.60;32.20;;;;;;5086861;28;19927;-55
2024/03/10 06:35:21;;;;;;;;;;;18.70;31.70;;;;;;5074123;28;19934;-53
2024/03/10 06:37:51;;;;;;;;;;;18.70;31.60;;;;;;5086406;28;19993;-51
2024/03/10 06:40:21;;;;;;;;;;;18.70;31.70;;;;;;5082329;28;19947;-53
2024/03/10 06:42:49;;;;;;;;;;;18.70;31.70;;;;;;5087684;28;19955;-52
2024/03/10 06:45:18;;;;;;;;;;;18.80;31.70;;;;;;5080943;28;20001;-51
2024/03/10 06:47:46;;;;;;;;;;;18.80;31.80;;;;;;5059288;28;19980;-52
2024/03/10 06:50:15;;;;;;;;;;;18.80;31.60;;;;;;5078499;28;20370;-55
2024/03/10 06:52:45;;;;;;;;;;;18.80;31.60;;;;;;5080549;28;19936;-50
2024/03/10 06:55:15;;;;;;;;;;;18.90;31.70;;;;;;5076225;28;20379;-54
2024/03/10 06:57:43;;;;;;;;;;;18.90;31.70;;;;;;5072976;28;20418;-54
2024/03/10 07:00:13;;;;;;;;;;;19.00;31.70;;;;;;5075737;28;20412;-54
2024/03/10 07:02:45;;;;;;;;;;;19.00;31.60;;;;;;5079239;28;19936;-54
2024/03/10 07:05:15;;;;;;;;;;;19.10;31.80;;;;;;5076524;28;19931;-55
2024/03/10 07:07:44;;;;;;;;;;;19.10;31.40;;;;;;5073503;28;19928;-50
2024/03/10 07:10:13;;;;;;;;;;;19.20;31.60;;;;;;5076494;28;20036;-56
2024/03/10 07:12:43;;;;;;;;;;;19.20;31.80;;;;;;5080319;28;19982;-55
2024/03/10 07:15:11;;;;;;;;;;;19.30;31.70;;;;;;5080724;28;19967;-53
2024/03/10 07:17:40;;;;;;;;;;;19.30;31.70;;;;;;5068185;28;20110;-52
2024/03/10 07:20:10;;;;;;;;;;;19.30;31.80;;;;;;5083587;28;19932;-56
2024/03/10 07:22:41;;;;;;;;;;;19.30;31.80;;;;;;5084897;28;20321;-53
2024/03/10 07:25:11;;;;;;;;;;;19.30;31.80;;;;;;5061789;28;19928;-53
2024/03/10 07:27:39;;;;;;;;;;;19.30;31.80;;;;;;5068290;28;19986;-55
2024/03/10 07:30:09;;;;;;;;;;;19.30;31.60;;;;;;5076209;28;19931;-53
2024/03/10 07:32:37;;;;;;;;;;;19.30;31.60;;;;;;5079171;28;19932;-56
2024/03/10 07:35:08;;;;;;;;;;;19.30;31.60;;;;;;5079106;28;19935;-53
2024/03/10 07:37:37;;;;;;;;;;;19.30;31.60;;;;;;5073980;28;20651;-53
2024/03/10 07:40:15;;;;;;;;;;;19.30;31.60;;;;;;5075737;28;19928;-53
2024/03/10 07:42:43;;;;;;;;;;;19.40;31.50;;;;;;5068508;28;20588;-57
2024/03/10 07:45:13;;;;;;;;;;;19.40;31.60;;;;;;5069829;28;20016;-56
2024/03/10 07:47:42;;;;;;;;;;;19.40;32.10;;;;;;5072443;28;19932;-57
2024/03/10 07:50:11;;;;;;;;;;;19.50;31.80;;;;;;5074573;28;20088;-57
2024/03/10 07:52:39;;;;;;;;;;;19.50;31.60;;;;;;5081525;28;19935;-56
2024/03/10 07:55:09;;;;;;;;;;;19.60;31.60;;;;;;5074210;28;19924;-57
2024/03/10 07:57:39;;;;;;;;;;;19.60;31.60;;;;;;5071097;28;19993;-57
2024/03/10 08:00:11;;;;;;;;;;;19.70;31.70;;;;;;5083903;28;20028;-54
2024/03/10 08:02:41;;;;;;;;;;;19.70;31.60;;;;;;5069831;28;20001;-57
2024/03/10 08:05:12;;;;;;;;;;;19.80;31.60;;;;;;5078336;28;19932;-56
2024/03/10 08:07:40;;;;;;;;;;;19.90;31.60;;;;;;5075452;28;20585;-54
2024/03/10 08:10:09;;;;;;;;;;;20.00;31.40;;;;;;5079218;28;19967;-58
2024/03/10 08:12:37;;;;;;;;;;;20.00;31.50;;;;;;5082582;28;20456;-54
2024/03/10 08:15:06;;;;;;;;;;;20.20;31.50;;;;;;5082470;28;20385;-57
2024/03/10 08:17:34;;;;;;;;;;;20.30;31.40;;;;;;5074846;28;19928;-57
2024/03/10 08:20:06;;;;;;;;;;;20.30;31.10;;;;;;5082582;28;19923;-57
2024/03/10 08:22:35;;;;;;;;;;;20.40;31.00;;;;;;5092045;27;19935;-58
2024/03/10 08:25:04;;;;;;;;;;;20.40;30.90;;;;;;5069795;28;19935;-56
2024/03/10 08:27:32;;;;;;;;;;;20.60;31.20;;;;;;5077001;28;20387;-56
2024/03/10 08:30:00;;;;;;;;;;;20.90;30.80;;;;;;5078120;28;20382;-56
2024/03/10 08:32:29;;;;;;;;;;;21.20;30.70;;;;;;5079153;28;20031;-57
2024/03/10 08:34:58;;;;;;;;;;;21.40;30.50;;;;;;5077063;28;20337;-58
2024/03/10 08:37:28;;;;;;;;;;;21.60;30.40;;;;;;5071267;28;19932;-55
2024/03/10 08:39:56;;;;;;;;;;;22.00;30.60;;;;;;5079631;27;20062;-57
2024/03/10 08:42:27;;;;;;;;;;;22.20;30.20;;;;;;5085981;28;19932;-58
2024/03/10 08:44:57;;;;;;;;;;;22.50;30.00;;;;;;5076599;28;19932;-55
2024/03/10 08:47:25;;;;;;;;;;;22.60;29.80;;;;;;5075085;28;19939;-53
2024/03/10 08:49:53;;;;;;;;;;;22.70;29.60;;;;;;5080191;28;19977;-55
2024/03/10 08:52:21;;;;;;;;;;;23.10;30.20;;;;;;5084463;28;19935;-57
2024/03/10 08:54:50;;;;;;;;;;;23.40;29.30;;;;;;5082563;28;20291;-57
2024/03/10 08:57:18;;;;;;;;;;;23.80;29.30;;;;;;5079359;27;19935;-55
2024/03/10 08:59:47;;;;;;;;;;;24.30;29.00;;;;;;5067360;28;20034;-56
2024/03/10 09:02:16;;;;;;;;;;;24.70;29.00;;;;;;5066298;27;19936;-57
2024/03/10 09:04:44;;;;;;;;;;;24.80;28.30;;;;;;5069110;28;20004;-61
2024/03/10 09:07:12;;;;;;;;;;;24.60;28.00;;;;;;5078119;28;19924;-58
2024/03/10 09:09:40;;;;;;;;;;;24.40;27.70;;;;;;5072597;28;20710;-59
2024/03/10 09:12:10;;;;;;;;;;;24.10;27.80;;;;;;5079448;28;19931;-59
2024/03/10 09:14:38;;;;;;;;;;;23.90;28.00;;;;;;5079131;28;19934;-58
2024/03/10 09:17:06;;;;;;;;;;;23.90;28.50;;;;;;5081648;28;20007;-59
2024/03/10 09:19:35;;;;;;;;;;;23.90;28.40;;;;;;5069413;28;19928;-57
2024/03/10 09:22:03;;;;;;;;;;;23.90;28.60;;;;;;5069044;28;19935;-59
2024/03/10 09:24:31;;;;;;;;;;;23.90;28.60;;;;;;5079794;28;20015;-58
2024/03/10 09:26:59;;;;;;;;;;;23.80;28.70;;;;;;5082668;28;20024;-58
2024/03/10 09:29:31;;;;;;;;;;;23.70;28.60;;;;;;5073365;28;20000;-59
2024/03/10 09:32:01;;;;;;;;;;;23.60;28.60;;;;;;5079894;28;20453;-60
2024/03/10 09:34:29;;;;;;;;;;;23.50;28.90;;;;;;5081576;28;19932;-59
2024/03/10 09:36:57;;;;;;;;;;;23.60;29.10;;;;;;5085737;28;19939;-59
2024/03/10 09:39:26;;;;;;;;;;;23.80;29.10;;;;;;5079031;28;19928;-57
2024/03/10 09:41:55;;;;;;;;;;;24.10;29.10;;;;;;5078217;28;19963;-59
2024/03/10 09:44:27;;;;;;;;;;;24.50;29.00;;;;;;5077936;27;19935;-60
2024/03/10 09:47:01;;;;;;;;;;;24.90;28.70;;;;;;5090224;28;19980;-60
2024/03/10 09:49:31;;;;;;;;;;;25.20;28.50;;;;;;5061517;28;19936;-59
2024/03/10 09:52:12;;;;;;;;;;;25.70;28.60;;;;;;5078377;27;19932;-57
2024/03/10 09:55:29;;;;;;;;;;;26.10;28.00;;;;;;5067982;28;20011;-57
2024/03/10 09:58:05;;;;;;;;;;;26.10;27.50;;;;;;5084709;28;20370;-56
2024/03/10 10:00:34;;;;;;;;;;;25.80;27.20;;;;;;5076534;28;20371;-58
2024/03/10 10:03:07;;;;;;;;;;;25.60;27.40;;;;;;5091744;28;20017;-59
2024/03/10 10:05:39;;;;;;;;;;;25.30;27.10;;;;;;5078444;28;20042;-57
2024/03/10 10:08:10;;;;;;;;;;;25.10;27.30;;;;;;5092163;28;19928;-58
2024/03/10 10:10:42;;;;;;;;;;;24.90;27.30;;;;;;5079650;28;19932;-57
2024/03/10 10:13:21;;;;;;;;;;;25.00;27.70;;;;;;5083038;28;19963;-59
2024/03/10 10:15:49;;;;;;;;;;;25.10;27.80;;;;;;5080235;28;19928;-59
2024/03/10 10:18:19;;;;;;;;;;;25.10;27.90;;;;;;5077402;28;20351;-59
2024/03/10 10:20:47;;;;;;;;;;;25.20;28.00;;;;;;5078439;27;20385;-60
2024/03/10 10:23:15;;;;;;;;;;;25.30;27.80;;;;;;5085547;28;19927;-58
2024/03/10 10:25:45;;;;;;;;;;;25.50;28.00;;;;;;5067667;28;20190;-57
2024/03/10 10:28:14;;;;;;;;;;;25.50;28.10;;;;;;5079141;28;19928;-60
2024/03/10 10:30:44;;;;;;;;;;;25.60;28.30;;;;;;5082134;28;20427;-57
2024/03/10 10:33:14;;;;;;;;;;;25.50;28.00;;;;;;5076296;28;19985;-57
2024/03/10 10:35:45;;;;;;;;;;;25.40;28.00;;;;;;5068736;28;20490;-60
2024/03/10 10:38:13;;;;;;;;;;;25.40;28.00;;;;;;5079391;28;20027;-58
2024/03/10 10:40:45;;;;;;;;;;;25.20;27.90;;;;;;5077284;28;20585;-60
2024/03/10 10:43:13;;;;;;;;;;;25.10;27.70;;;;;;5084274;28;20020;-57
2024/03/10 10:45:43;;;;;;;;;;;24.90;28.10;;;;;;5070047;28;19920;-57
2024/03/10 10:48:12;;;;;;;;;;;24.90;28.20;;;;;;5064452;28;19981;-56
2024/03/10 10:50:42;;;;;;;;;;;24.90;28.30;;;;;;5080605;28;20027;-55
2024/03/10 10:53:15;;;;;;;;;;;25.00;28.30;;;;;;5085958;28;19928;-58
2024/03/10 10:55:45;;;;;;;;;;;24.90;27.70;;;;;;5076077;28;19924;-55
2024/03/10 10:58:15;;;;;;;;;;;24.70;27.70;;;;;;5075569;28;19934;-57
2024/03/10 11:00:50;;;;;;;;;;;24.70;28.00;;;;;;5078435;28;19931;-58
2024/03/10 11:03:24;;;;;;;;;;;24.90;28.10;;;;;;5072712;28;20369;-57
2024/03/10 11:06:15;;;;;;;;;;;25.00;27.80;;;;;;5078771;28;19935;-55
2024/03/10 11:08:46;;;;;;;;;;;25.00;27.70;;;;;;5078237;28;19935;-57
2024/03/10 11:11:37;;;;;;;;;;;25.20;27.70;;;;;;5082087;28;20014;-57
2024/03/10 11:14:06;;;;;;;;;;;25.40;27.40;;;;;;5082820;28;20502;-59
2024/03/10 11:16:35;;;;;;;;;;;25.40;27.50;;;;;;5053004;28;19924;-55
2024/03/10 11:19:11;;;;;;;;;;;25.40;27.50;;;;;;5070580;28;20359;-55
2024/03/10 11:21:40;;;;;;;;;;;25.20;27.50;;;;;;5066435;28;20626;-60
2024/03/10 11:24:15;;;;;;;;;;;25.10;27.70;;;;;;5069862;28;20023;-57
2024/03/10 11:26:43;;;;;;;;;;;25.10;28.00;;;;;;5073144;28;19950;-58
2024/03/10 11:41:47;;;;;;;0.85;0.43;;;24.90;27.10;;;;;;5068919;27;20970;-60
2024/03/10 11:44:16;;;;;;;0.20;0.20;;;25.20;26.80;;;;;;5072115;28;20109;-62
2024/03/10 11:46:46;;;;;;;0.15;0.15;;;25.30;26.80;;;;;;5018330;28;21819;-60
2024/03/10 11:49:16;;;;;;;0.55;0.20;;;25.20;26.70;;;;;;5053576;28;20135;-61
2024/03/10 11:51:46;;;;;;;1.38;0.68;;;25.00;26.70;;;;;;5028472;28;20527;-59
2024/03/10 11:54:15;;;;;;;0.05;0.05;;;24.90;27.10;;;;;;5026095;28;20059;-62
2024/03/10 11:56:51;;;;;;;0.20;0.20;;;24.70;27.00;;;;;;5019539;28;20057;-68
2024/03/10 11:59:21;;;;;;;2.22;1.00;;;24.50;27.20;;;;;;5027166;28;20100;-61
2024/03/10 12:01:50;;;;;;;0.15;0.10;;;24.30;27.40;;;;;;5030008;28;20541;-62
2024/03/10 12:04:20;;;;;;;0.35;0.35;;;24.10;27.40;;;;;;5029740;28;20162;-67
2024/03/10 12:06:49;;;;;;;3.35;0.20;;;23.90;27.60;;;;;;5022326;28;21568;-64
2024/03/10 12:09:21;;;;;;;1.35;0.75;;;23.80;27.70;;;;;;5029605;28;20657;-62
2024/03/10 12:11:51;;;;;;;1.65;0.50;;;23.70;27.80;;;;;;5027453;28;20068;-61
2024/03/10 12:14:21;;;;;;;0.10;0.10;;;23.70;27.90;;;;;;5033972;28;20179;-60
2024/03/10 12:16:49;;;;;;;0.32;0.10;;;23.60;28.00;;;;;;5021658;28;20061;-61
2024/03/10 12:19:20;;;;;;;4.22;0.40;;;23.60;28.00;;;;;;5027111;28;20061;-61
2024/03/10 12:21:49;;;;;;;0.10;0.10;;;23.60;28.10;;;;;;5030744;28;20065;-60
2024/03/10 12:24:17;;;;;;;0.28;0.28;;;23.70;28.30;;;;;;5027965;28;20056;-64
2024/03/10 12:26:46;;;;;;;0.50;0.20;;;23.60;28.00;;;;;;5021181;28;20773;-62
2024/03/10 12:29:20;;;;;;;0.08;0.08;;;23.60;28.10;;;;;;5048023;28;20511;-63
2024/03/10 12:31:49;;;;;;;0.40;0.08;;;23.60;28.30;;;;;;5027344;28;20139;-63
2024/03/10 12:34:23;;;;;;;0.35;0.20;;;23.70;28.80;;;;;;5024372;28;20049;-61
2024/03/10 12:36:52;;;;;;;0.20;0.20;;;23.60;28.10;;;;;;5022596;28;20061;-61
2024/03/10 12:39:23;;;;;;;0.20;0.20;;;23.70;28.30;;;;;;5024850;28;20053;-61
2024/03/10 12:41:51;;;;;;;0.10;0.10;;;23.80;28.40;;;;;;5013467;28;20057;-62
2024/03/10 12:44:21;;;;;;;0.30;0.30;;;23.90;28.30;;;;;;5010818;28;20054;-62
2024/03/10 12:46:50;;;;;;;0.25;0.20;;;24.00;28.20;;;;;;5014529;28;20063;-63
2024/03/10 12:49:18;;;;;;;1.33;0.47;;;24.10;28.10;;;;;;5013560;28;20089;-60
2024/03/10 12:51:47;;;;;;;0.57;0.57;;;24.20;28.30;;;;;;5016080;28;20152;-61
2024/03/10 12:54:15;;;;;;;1.40;0.68;;;24.30;28.20;;;;;;5013379;28;20049;-65
2024/03/10 12:56:43;;;;;;;2.28;0.55;;;24.50;28.20;;;;;;5009447;28;20457;-61
2024/03/10 12:59:12;;;;;;;3.38;1.48;;;24.50;28.10;;;;;;5014097;28;20054;-66
2024/03/10 13:01:42;;;;;;;0.20;0.20;;;24.70;28.10;;;;;;5016482;28;20061;-62
2024/03/10 13:04:11;;;;;;;0.10;0.10;;;24.80;28.20;;;;;;5008577;28;20579;-62
2024/03/10 13:06:40;;;;;;;4.95;1.00;;;24.90;28.20;;;;;;5000985;28;20097;-61
2024/03/10 13:09:09;;;;;;;0.65;0.57;;;24.90;27.90;;;;;;5008696;28;20042;-62
2024/03/10 13:11:38;;;;;;;5.30;0.60;;;24.90;28.10;;;;;;5007159;28;20132;-61
2024/03/10 13:14:07;;;;;;;1.83;0.73;;;24.90;28.10;;;;;;5012223;28;20135;-64
2024/03/10 13:16:36;;;;;;;0.00;0.00;;;24.90;28.10;;;;;;5008472;28;20114;-67
2024/03/10 13:19:10;;;;;;;2.78;0.55;;;24.80;28.00;;;;;;5013286;28;20135;-63
2024/03/10 13:21:39;;;;;;;1.20;0.98;;;24.70;28.00;;;;;;5011456;28;20057;-64
2024/03/10 13:24:12;;;;;;;0.65;0.32;;;24.60;28.00;;;;;;5024744;28;20038;-63
2024/03/10 13:26:42;;;;;;;0.10;0.10;;;24.50;27.90;;;;;;5007623;28;20057;-63
2024/03/10 13:29:12;;;;;;;0.25;0.20;;;24.40;28.00;;;;;;5012602;28;20060;-66
2024/03/10 13:31:40;;;;;;;1.75;0.35;;;24.20;28.20;;;;;;5012897;28;20064;-66
2024/03/10 13:34:10;;;;;;;2.00;0.20;;;24.10;28.40;;;;;;5011168;28;20057;-64
2024/03/10 13:36:45;;;;;;;8.25;1.45;;;24.10;28.50;;;;;;5026802;28;20057;-62
2024/03/10 13:39:15;;;;;;;0.30;0.30;;;24.10;28.50;;;;;;5016378;28;20065;-63
2024/03/10 13:41:45;;;;;;;8.10;0.75;;;24.10;28.50;;;;;;5016923;28;20069;-64
2024/03/10 13:44:22;;;;;;;0.08;0.08;;;24.10;28.60;;;;;;5003753;28;20069;-62
2024/03/10 13:46:52;;;;;;;0.20;0.20;;;24.20;28.40;;;;;;5009930;28;20073;-64
2024/03/10 13:49:23;;;;;;;3.58;0.93;;;24.20;28.50;;;;;;5012576;28;20068;-64
2024/03/10 13:51:52;;;;;;;0.60;0.28;;;24.20;28.50;;;;;;5012194;28;20061;-67
2024/03/10 13:54:23;;;;;;;0.40;0.30;;;24.20;28.50;;;;;;5012690;28;20420;-65
2024/03/10 13:56:53;;;;;;;0.47;0.28;;;24.30;28.60;;;;;;5007031;28;21020;-65
2024/03/10 13:59:23;;;;;;;1.58;0.25;;;24.10;28.30;;;;;;5017547;28;20057;-64
2024/03/10 14:01:52;;;;;;;1.05;0.50;;;24.10;28.40;;;;;;5010093;28;20444;-64
2024/03/10 14:04:22;;;;;;;1.35;0.65;;;24.00;28.50;;;;;;5012127;28;20063;-68
2024/03/10 14:06:50;;;;;;;6.03;1.42;;;23.90;28.50;;;;;;5006134;28;20061;-65
2024/03/10 14:09:18;;;;;;;0.43;0.10;;;23.80;28.60;;;;;;5005909;28;20058;-64
2024/03/10 14:11:49;;;;;;;0.60;0.38;;;23.80;28.60;;;;;;5024209;28;20594;-65
2024/03/10 14:14:18;;;;;;;0.03;0.03;;;23.80;28.70;;;;;;5010546;28;20065;-62
2024/03/10 14:16:49;;;;;;;0.82;0.45;;;23.80;28.80;;;;;;5007404;28;20461;-63
2024/03/10 14:19:18;;;;;;;0.75;0.30;;;23.80;28.70;;;;;;5008325;28;20635;-64
2024/03/10 14:21:47;;;;;;;0.20;0.20;;;23.90;28.70;;;;;;5015482;28;20068;-61
2024/03/10 14:24:16;;;;;;;0.22;0.22;;;23.80;28.60;;;;;;5011112;28;20056;-64
2024/03/10 14:26:44;;;;;;;0.17;0.17;;;23.80;28.60;;;;;;5005875;28;20159;-65
2024/03/10 14:29:13;;;;;;;0.13;0.13;;;23.70;28.70;;;;;;5019180;28;20060;-62
2024/03/10 14:31:41;;;;;;;0.98;0.30;;;23.70;28.60;;;;;;5015405;28;20136;-62
2024/03/10 14:34:09;;;;;;;1.65;0.38;;;23.60;28.70;;;;;;5010001;28;20057;-63
2024/03/10 14:36:37;;;;;;;0.20;0.20;;;23.70;28.90;;;;;;5008317;28;20523;-65
2024/03/10 14:39:08;;;;;;;0.55;0.47;;;23.70;28.80;;;;;;5025069;28;20057;-63
2024/03/10 14:41:36;;;;;;;0.10;0.10;;;23.70;28.80;;;;;;5013485;28;20053;-63
2024/03/10 14:44:05;;;;;;;0.17;0.17;;;23.70;28.90;;;;;;5013640;28;20467;-64